Time;durP1;ratioP1;P1;durP2;ratioP2;P2;SDS_P1;SDS_P2;PMS_P1;PMS_P2;Temp;Humidity;BMP_temperature;BMP_pressure;BME280_temperature;BME280_humidity;BME280_pressure;Samples;Min_cycle;Max_cycle;Signal;HPM_P1;HPM_P2
2020/12/05 00:00:12;;;;;;;3.90;3.33;;;3.00;99.90;;;;;;5047032;28;20198;-80
2020/12/05 00:02:39;;;;;;;10.73;3.70;;;2.90;99.90;;;;;;5047882;28;20226;-81
2020/12/05 00:05:05;;;;;;;5.43;3.40;;;2.90;99.90;;;;;;5047046;28;20217;-80
2020/12/05 00:07:31;;;;;;;7.13;3.63;;;3.00;99.90;;;;;;5046946;28;20245;-81
2020/12/05 00:09:58;;;;;;;5.70;3.20;;;2.90;99.90;;;;;;5047468;28;20202;-80
2020/12/05 00:12:24;;;;;;;8.23;3.80;;;2.90;99.90;;;;;;5046699;28;20613;-81
2020/12/05 00:14:51;;;;;;;6.33;3.83;;;2.90;99.90;;;;;;5047139;28;20202;-80
2020/12/05 00:17:17;;;;;;;4.83;3.57;;;2.90;99.90;;;;;;5046903;28;20214;-80
2020/12/05 00:19:45;;;;;;;5.37;3.27;;;2.90;99.90;;;;;;5046237;28;20193;-79
2020/12/05 00:22:11;;;;;;;6.93;3.40;;;2.80;99.90;;;;;;5046294;28;20305;-81
2020/12/05 00:24:37;;;;;;;6.40;3.63;;;2.80;99.90;;;;;;5047314;28;20213;-81
2020/12/05 00:27:04;;;;;;;5.30;3.30;;;2.90;99.90;;;;;;5006735;28;20230;-81
2020/12/05 00:29:30;;;;;;;6.93;3.20;;;2.80;99.90;;;;;;5006718;28;20211;-81
2020/12/05 00:31:57;;;;;;;5.53;3.50;;;2.80;99.90;;;;;;5005706;28;20815;-80
2020/12/05 00:34:23;;;;;;;5.70;3.50;;;2.80;99.90;;;;;;5006346;28;20207;-80
2020/12/05 00:36:52;;;;;;;6.53;3.90;;;2.80;99.90;;;;;;5006980;28;20207;-81
2020/12/05 00:39:18;;;;;;;7.33;3.33;;;2.80;99.90;;;;;;5006102;28;20214;-80
2020/12/05 00:41:45;;;;;;;5.97;3.40;;;2.80;99.90;;;;;;5005401;28;20674;-80
2020/12/05 00:44:11;;;;;;;4.53;3.60;;;2.80;99.90;;;;;;5005848;28;20214;-80
2020/12/05 00:46:40;;;;;;;6.60;3.27;;;2.80;99.90;;;;;;5006228;28;20207;-79
2020/12/05 00:49:07;;;;;;;5.03;3.10;;;2.70;99.90;;;;;;5004934;28;20253;-80
2020/12/05 00:51:34;;;;;;;6.33;3.83;;;2.70;99.90;;;;;;5006093;28;20203;-80
2020/12/05 00:54:00;;;;;;;6.30;3.67;;;2.70;99.90;;;;;;5005825;28;20206;-80
2020/12/05 00:56:26;;;;;;;10.80;3.93;;;2.70;99.90;;;;;;5004208;28;20191;-81
2020/12/05 00:58:53;;;;;;;8.30;4.20;;;2.70;99.90;;;;;;5005831;28;20211;-80
2020/12/05 01:01:19;;;;;;;5.00;3.50;;;2.70;99.90;;;;;;5005048;28;20202;-80
2020/12/05 01:03:45;;;;;;;5.93;3.63;;;2.60;99.90;;;;;;5004626;28;20870;-80
2020/12/05 01:06:13;;;;;;;4.60;3.47;;;2.60;99.90;;;;;;5004795;28;20826;-80
2020/12/05 01:08:40;;;;;;;5.37;3.87;;;2.60;99.90;;;;;;5004720;28;20207;-80
2020/12/05 01:11:13;;;;;;;4.37;2.80;;;2.60;99.90;;;;;;5004990;28;20290;-80
2020/12/05 01:13:40;;;;;;;4.80;3.40;;;2.60;99.90;;;;;;5004925;28;20199;-80
2020/12/05 01:16:09;;;;;;;10.37;3.83;;;2.60;99.90;;;;;;5004181;28;20195;-79
2020/12/05 01:18:35;;;;;;;7.03;3.63;;;2.50;99.90;;;;;;5005073;28;20211;-79
2020/12/05 01:21:02;;;;;;;3.50;3.20;;;2.50;99.90;;;;;;5005119;28;20203;-79
2020/12/05 01:23:29;;;;;;;5.33;3.90;;;2.50;99.90;;;;;;5004513;28;20231;-79
2020/12/05 01:25:55;;;;;;;9.07;3.60;;;2.50;99.90;;;;;;5025335;28;20235;-80
2020/12/05 01:28:21;;;;;;;7.03;3.90;;;2.50;99.90;;;;;;5043809;28;20198;-80
2020/12/05 01:30:48;;;;;;;6.77;3.87;;;2.50;99.90;;;;;;5043038;28;20202;-79
2020/12/05 01:33:14;;;;;;;8.30;3.80;;;2.40;99.90;;;;;;5043787;28;20198;-79
2020/12/05 01:35:40;;;;;;;5.43;3.83;;;2.40;99.90;;;;;;5043886;28;20209;-79
2020/12/05 01:38:06;;;;;;;4.87;3.60;;;2.40;99.90;;;;;;5042896;28;20813;-80
2020/12/05 01:40:33;;;;;;;9.13;4.03;;;2.40;99.90;;;;;;5043830;28;20815;-80
2020/12/05 01:43:00;;;;;;;5.70;3.80;;;2.40;99.90;;;;;;5043162;28;20225;-78
2020/12/05 01:45:26;;;;;;;4.73;3.30;;;2.40;99.90;;;;;;5042592;28;20210;-79
2020/12/05 01:47:52;;;;;;;5.47;3.57;;;2.40;99.90;;;;;;5043604;28;20598;-79
2020/12/05 01:50:19;;;;;;;4.87;3.80;;;2.40;99.90;;;;;;5044094;28;20201;-79
2020/12/05 01:52:45;;;;;;;5.50;4.60;;;2.30;99.90;;;;;;5043036;28;20198;-80
2020/12/05 01:55:11;;;;;;;6.60;4.63;;;2.30;99.90;;;;;;5042993;28;20205;-79
2020/12/05 01:57:38;;;;;;;6.93;4.00;;;2.30;99.90;;;;;;5043476;28;20213;-79
2020/12/05 02:00:06;;;;;;;6.77;4.63;;;2.30;99.90;;;;;;5043174;28;20224;-79
2020/12/05 02:02:33;;;;;;;8.93;4.10;;;2.30;99.90;;;;;;5043288;28;20221;-80
2020/12/05 02:05:07;;;;;;;3.90;3.60;;;2.30;99.90;;;;;;5042379;28;20210;-79
2020/12/05 02:07:44;;;;;;;5.60;3.90;;;2.30;99.90;;;;;;5043186;28;20233;-79
2020/12/05 02:10:15;;;;;;;5.90;3.87;;;2.30;99.90;;;;;;5043479;28;20285;-77
2020/12/05 02:12:50;;;;;;;7.47;4.97;;;2.30;99.90;;;;;;5043575;28;20191;-78
2020/12/05 02:15:20;;;;;;;5.70;3.63;;;2.30;99.90;;;;;;5043383;28;20213;-78
2020/12/05 02:17:54;;;;;;;6.13;4.10;;;2.30;99.90;;;;;;5043462;28;20201;-78
2020/12/05 02:20:21;;;;;;;7.33;4.20;;;2.20;99.90;;;;;;5042737;28;20191;-78
2020/12/05 02:22:51;;;;;;;7.43;3.57;;;2.20;99.90;;;;;;5042884;28;20229;-79
2020/12/05 02:25:18;;;;;;;5.03;3.57;;;2.10;99.90;;;;;;5037826;28;20194;-79
2020/12/05 02:27:45;;;;;;;6.70;3.53;;;2.10;99.90;;;;;;5022647;28;20236;-80
2020/12/05 02:30:12;;;;;;;6.17;3.57;;;2.10;99.90;;;;;;5023284;28;20205;-79
2020/12/05 02:32:39;;;;;;;5.00;3.67;;;2.10;99.90;;;;;;5023218;28;20194;-79
2020/12/05 02:35:06;;;;;;;4.53;3.60;;;2.00;99.90;;;;;;5022152;28;20194;-80
2020/12/05 02:37:37;;;;;;;4.03;3.60;;;2.00;99.90;;;;;;5023270;28;20205;-79
2020/12/05 02:40:03;;;;;;;5.90;3.87;;;1.90;99.90;;;;;;5023080;28;20210;-79
2020/12/05 02:42:31;;;;;;;5.47;3.70;;;1.90;99.90;;;;;;5022811;28;20229;-79
2020/12/05 02:44:57;;;;;;;5.23;3.60;;;1.80;99.90;;;;;;5022830;28;20210;-80
2020/12/05 02:47:23;;;;;;;7.13;3.83;;;1.80;99.90;;;;;;5022155;28;20209;-79
2020/12/05 02:49:50;;;;;;;4.87;3.40;;;1.70;99.90;;;;;;5023029;28;20606;-78
2020/12/05 02:52:16;;;;;;;6.03;3.70;;;1.70;99.90;;;;;;5023098;28;20207;-78
2020/12/05 02:54:42;;;;;;;4.90;3.70;;;1.70;99.90;;;;;;5022557;28;20290;-79
2020/12/05 02:57:10;;;;;;;3.87;3.30;;;1.60;99.90;;;;;;5026753;28;20210;-79
2020/12/05 02:59:37;;;;;;;4.80;3.67;;;1.60;99.90;;;;;;5026661;28;20207;-80
2020/12/05 03:02:03;;;;;;;4.60;3.13;;;1.60;99.90;;;;;;5024798;28;20603;-80
2020/12/05 03:04:29;;;;;;;5.83;3.40;;;1.50;99.90;;;;;;5025287;28;20583;-79
2020/12/05 03:06:57;;;;;;;6.43;3.83;;;1.50;99.90;;;;;;5016213;28;20234;-80
2020/12/05 03:09:23;;;;;;;7.90;3.80;;;1.50;99.90;;;;;;5004771;28;20230;-79
2020/12/05 03:11:50;;;;;;;6.23;4.03;;;1.40;99.90;;;;;;5005738;28;20214;-79
2020/12/05 03:14:16;;;;;;;6.07;3.70;;;1.40;99.90;;;;;;5005061;28;20214;-79
2020/12/05 03:16:43;;;;;;;7.33;3.87;;;1.40;99.90;;;;;;5005805;28;20209;-79
2020/12/05 03:19:10;;;;;;;7.07;4.00;;;1.40;99.90;;;;;;5005723;28;20210;-80
2020/12/05 03:21:36;;;;;;;6.70;4.00;;;1.40;99.90;;;;;;5006024;28;20199;-79
2020/12/05 03:24:02;;;;;;;4.43;3.80;;;1.40;99.90;;;;;;5005403;28;20238;-80
2020/12/05 03:26:29;;;;;;;5.47;3.70;;;1.30;99.90;;;;;;5021049;28;20233;-79
2020/12/05 03:28:56;;;;;;;8.00;4.20;;;1.30;99.90;;;;;;5026268;28;20210;-79
2020/12/05 03:31:33;;;;;;;4.60;3.77;;;1.30;99.90;;;;;;5025003;28;20786;-79
2020/12/05 03:34:01;;;;;;;4.93;4.17;;;1.20;99.90;;;;;;5026082;28;20187;-79
2020/12/05 03:36:27;;;;;;;5.97;4.03;;;1.20;99.90;;;;;;5025565;28;20233;-79
2020/12/05 03:38:54;;;;;;;4.80;3.83;;;1.20;99.90;;;;;;5026620;28;20297;-77
2020/12/05 03:41:23;;;;;;;4.13;3.73;;;1.10;99.90;;;;;;5025695;28;20256;-79
2020/12/05 03:43:50;;;;;;;4.77;3.93;;;1.10;99.90;;;;;;5025452;28;20645;-78
2020/12/05 03:46:16;;;;;;;4.43;3.43;;;1.10;99.90;;;;;;5025959;28;20191;-78
2020/12/05 03:48:43;;;;;;;6.33;4.17;;;1.10;99.90;;;;;;5025797;28;20622;-79
2020/12/05 03:51:10;;;;;;;5.13;3.80;;;1.10;99.90;;;;;;5024085;28;20199;-79
2020/12/05 03:53:36;;;;;;;5.43;3.53;;;1.10;99.90;;;;;;5025152;28;20213;-79
2020/12/05 03:56:02;;;;;;;4.97;4.17;;;1.10;99.90;;;;;;5024262;28;20210;-79
2020/12/05 03:58:29;;;;;;;5.17;3.63;;;1.10;99.90;;;;;;5023759;28;20217;-79
2020/12/05 04:00:55;;;;;;;6.67;4.43;;;1.00;99.90;;;;;;5025332;28;20273;-79
2020/12/05 04:03:21;;;;;;;7.77;4.57;;;1.00;99.90;;;;;;5026497;28;20229;-78
2020/12/05 04:05:47;;;;;;;5.50;4.07;;;1.00;99.90;;;;;;5025253;28;20206;-78
2020/12/05 04:08:14;;;;;;;5.10;4.60;;;1.00;99.90;;;;;;5025335;28;20238;-78
2020/12/05 04:10:41;;;;;;;7.17;4.67;;;1.00;99.90;;;;;;5026199;28;20202;-79
2020/12/05 04:13:07;;;;;;;5.73;4.80;;;1.00;99.90;;;;;;5024909;28;20290;-78
2020/12/05 04:15:33;;;;;;;7.00;4.40;;;1.00;99.90;;;;;;5025612;28;20218;-78
2020/12/05 04:17:59;;;;;;;7.97;5.17;;;0.90;99.90;;;;;;5025713;28;20202;-77
2020/12/05 04:20:26;;;;;;;6.17;4.43;;;0.90;99.90;;;;;;5025354;28;20214;-78
2020/12/05 04:22:54;;;;;;;14.97;7.40;;;0.90;99.90;;;;;;5025524;28;20535;-79
2020/12/05 04:25:25;;;;;;;7.43;4.57;;;0.90;99.90;;;;;;5019467;28;20210;-79
2020/12/05 04:27:51;;;;;;;8.13;5.40;;;0.90;99.90;;;;;;5005648;28;20255;-78
2020/12/05 04:30:17;;;;;;;6.57;4.70;;;0.90;99.90;;;;;;5005172;28;20199;-78
2020/12/05 04:32:44;;;;;;;8.10;4.80;;;0.90;99.90;;;;;;5005064;28;20200;-79
2020/12/05 04:35:11;;;;;;;6.97;5.17;;;0.90;99.90;;;;;;5005699;28;20231;-79
2020/12/05 04:37:37;;;;;;;7.77;5.23;;;0.90;99.90;;;;;;5005868;28;20199;-78
2020/12/05 04:40:04;;;;;;;9.53;5.77;;;0.90;99.90;;;;;;5004620;28;20208;-79
2020/12/05 04:42:32;;;;;;;8.23;4.93;;;0.80;99.90;;;;;;5005806;28;20698;-79
2020/12/05 04:44:59;;;;;;;11.10;5.30;;;0.90;99.90;;;;;;5005036;28;21010;-78
2020/12/05 04:47:27;;;;;;;8.23;4.87;;;0.90;99.90;;;;;;5004837;28;20211;-79
2020/12/05 04:49:56;;;;;;;9.77;5.60;;;0.90;99.90;;;;;;5005715;28;20202;-78
2020/12/05 04:52:23;;;;;;;8.77;5.77;;;0.90;99.90;;;;;;5005141;28;20569;-78
2020/12/05 04:54:52;;;;;;;7.13;4.87;;;0.80;99.90;;;;;;5004704;28;20703;-79
2020/12/05 04:57:21;;;;;;;7.00;4.87;;;0.80;99.90;;;;;;5005242;28;20254;-79
2020/12/05 04:59:50;;;;;;;8.13;5.70;;;0.80;99.90;;;;;;5005743;28;20234;-79
2020/12/05 05:02:18;;;;;;;7.40;5.23;;;0.80;99.90;;;;;;5004500;28;20207;-79
2020/12/05 05:04:47;;;;;;;8.60;5.50;;;0.80;99.90;;;;;;5005017;28;20270;-79
2020/12/05 05:07:13;;;;;;;7.37;5.40;;;0.80;99.90;;;;;;5004739;28;20313;-79
2020/12/05 05:09:46;;;;;;;8.97;5.60;;;0.70;99.90;;;;;;5004531;28;20218;-77
2020/12/05 05:12:25;;;;;;;8.70;6.07;;;0.70;99.90;;;;;;5004418;28;20877;-77
2020/12/05 05:14:52;;;;;;;7.83;5.30;;;0.70;99.90;;;;;;5004220;28;20203;-76
2020/12/05 05:17:18;;;;;;;7.17;5.03;;;0.70;99.90;;;;;;5004370;28;20285;-78
2020/12/05 05:19:44;;;;;;;10.07;6.00;;;0.70;99.90;;;;;;5004607;28;20207;-78
2020/12/05 05:22:11;;;;;;;9.40;5.57;;;0.70;99.90;;;;;;5003931;28;20938;-77
2020/12/05 05:24:37;;;;;;;11.27;7.13;;;0.60;99.90;;;;;;5005055;28;20223;-78
2020/12/05 05:27:05;;;;;;;10.93;6.70;;;0.60;99.90;;;;;;5023575;28;20222;-79
2020/12/05 05:29:35;;;;;;;7.37;5.87;;;0.60;99.90;;;;;;5024224;28;20197;-78
2020/12/05 05:32:08;;;;;;;8.43;5.43;;;0.60;99.90;;;;;;5023960;28;20203;-79
2020/12/05 05:34:34;;;;;;;6.57;4.80;;;0.50;99.90;;;;;;5024083;28;20203;-78
2020/12/05 05:37:01;;;;;;;8.53;5.50;;;0.50;99.90;;;;;;5023197;28;20202;-79
2020/12/05 05:39:29;;;;;;;9.20;5.70;;;0.50;99.90;;;;;;5023210;28;20206;-79
2020/12/05 05:41:56;;;;;;;10.07;5.63;;;0.50;99.90;;;;;;5022406;28;20206;-79
2020/12/05 05:44:27;;;;;;;8.83;5.93;;;0.50;99.90;;;;;;5022232;28;20226;-79
2020/12/05 05:46:54;;;;;;;11.37;5.80;;;0.50;99.90;;;;;;5022377;28;20206;-79
2020/12/05 05:49:32;;;;;;;7.23;5.20;;;0.50;99.90;;;;;;5023569;28;20229;-78
2020/12/05 05:51:59;;;;;;;10.30;5.50;;;0.50;99.90;;;;;;5022726;28;20346;-79
2020/12/05 05:54:27;;;;;;;9.77;5.57;;;0.50;99.90;;;;;;5023961;28;20207;-79
2020/12/05 05:56:59;;;;;;;7.43;5.40;;;0.50;99.90;;;;;;5024010;28;20207;-78
2020/12/05 05:59:27;;;;;;;8.10;5.87;;;0.50;99.90;;;;;;5023304;28;20206;-78
2020/12/05 06:01:54;;;;;;;7.13;4.87;;;0.50;99.90;;;;;;5024023;28;20536;-79
2020/12/05 06:04:30;;;;;;;6.97;4.90;;;0.50;99.90;;;;;;5022915;28;20653;-79
2020/12/05 06:06:59;;;;;;;6.93;4.60;;;0.50;99.90;;;;;;5030780;28;20233;-78
2020/12/05 06:09:28;;;;;;;8.67;4.93;;;0.50;99.90;;;;;;5043266;28;20208;-79
2020/12/05 06:11:56;;;;;;;8.27;4.80;;;0.50;99.90;;;;;;5043355;28;20202;-79
2020/12/05 06:14:24;;;;;;;8.83;5.20;;;0.50;99.90;;;;;;5043819;28;20209;-79
2020/12/05 06:16:52;;;;;;;8.37;4.93;;;0.50;99.90;;;;;;5043694;28;20202;-78
2020/12/05 06:19:19;;;;;;;6.43;4.27;;;0.50;99.90;;;;;;5042671;28;20208;-79
2020/12/05 06:21:50;;;;;;;6.03;4.07;;;0.50;99.90;;;;;;5043419;28;20254;-79
2020/12/05 06:24:23;;;;;;;5.83;4.77;;;0.50;99.90;;;;;;5042977;28;20641;-79
2020/12/05 06:26:50;;;;;;;6.27;4.10;;;0.50;99.90;;;;;;5025080;28;20521;-79
2020/12/05 06:29:17;;;;;;;7.20;4.50;;;0.40;99.90;;;;;;5023155;28;20203;-78
2020/12/05 06:31:46;;;;;;;5.67;4.30;;;0.50;99.90;;;;;;5027129;28;20509;-79
2020/12/05 06:34:39;;;;;;;6.37;4.73;;;0.40;99.90;;;;;;5026204;28;20202;-78
2020/12/05 06:37:08;;;;;;;7.80;5.40;;;0.40;99.90;;;;;;5026790;28;20226;-79
2020/12/05 06:39:34;;;;;;;8.80;5.20;;;0.40;99.90;;;;;;5025997;28;20199;-78
2020/12/05 06:42:00;;;;;;;5.83;4.83;;;0.40;99.90;;;;;;5026498;28;20198;-78
2020/12/05 06:44:37;;;;;;;8.77;5.10;;;0.40;99.90;;;;;;5026498;28;20226;-79
2020/12/05 06:47:05;;;;;;;6.30;4.73;;;0.40;99.90;;;;;;5025415;28;20525;-79
2020/12/05 06:49:54;;;;;;;8.37;5.80;;;0.40;99.90;;;;;;5026730;28;20622;-79
2020/12/05 06:52:37;;;;;;;8.03;4.53;;;0.40;99.90;;;;;;5026736;28;20191;-78
2020/12/05 06:55:10;;;;;;;8.53;4.93;;;0.40;99.90;;;;;;5025821;28;20595;-79
2020/12/05 06:57:37;;;;;;;7.03;4.33;;;0.40;99.90;;;;;;5026536;28;20214;-79
2020/12/05 07:00:23;;;;;;;7.00;5.13;;;0.30;99.90;;;;;;5026416;28;20198;-79
2020/12/05 07:02:53;;;;;;;7.60;5.00;;;0.40;99.90;;;;;;5026728;28;20221;-78
2020/12/05 07:05:32;;;;;;;8.47;5.30;;;0.40;99.90;;;;;;5026590;28;20198;-78
2020/12/05 07:08:01;;;;;;;6.17;5.10;;;0.40;99.90;;;;;;5009539;28;20884;-79
2020/12/05 07:10:50;;;;;;;9.17;5.27;;;0.40;99.90;;;;;;5006009;28;20204;-79
2020/12/05 07:13:18;;;;;;;9.03;5.90;;;0.40;99.90;;;;;;5006405;28;20226;-79
2020/12/05 07:15:45;;;;;;;8.70;4.93;;;0.40;99.90;;;;;;5006699;28;20210;-79
2020/12/05 07:18:19;;;;;;;7.50;5.43;;;0.40;99.90;;;;;;5006337;28;20214;-79
2020/12/05 07:20:45;;;;;;;9.67;5.77;;;0.40;99.90;;;;;;5006047;28;20570;-79
2020/12/05 07:23:12;;;;;;;8.53;5.43;;;0.50;99.90;;;;;;5005505;28;20234;-79
2020/12/05 07:25:39;;;;;;;8.40;5.60;;;0.50;99.90;;;;;;5014176;28;20198;-78
2020/12/05 07:28:05;;;;;;;8.53;5.50;;;0.50;99.90;;;;;;5025529;28;20210;-79
2020/12/05 07:30:31;;;;;;;7.60;5.00;;;0.50;99.90;;;;;;5025254;28;20191;-78
2020/12/05 07:32:57;;;;;;;7.57;5.77;;;0.60;99.90;;;;;;5026005;28;20206;-79
2020/12/05 07:35:23;;;;;;;6.80;5.23;;;0.60;99.90;;;;;;5025950;28;20213;-78
2020/12/05 07:37:50;;;;;;;8.00;5.90;;;0.60;99.90;;;;;;5025395;28;20195;-79
2020/12/05 07:40:27;;;;;;;8.63;5.93;;;0.70;99.90;;;;;;5025547;28;20214;-78
2020/12/05 07:42:53;;;;;;;8.00;5.93;;;0.70;99.90;;;;;;5025647;28;20318;-78
2020/12/05 07:45:20;;;;;;;10.33;6.70;;;0.70;99.90;;;;;;5026049;28;20202;-79
2020/12/05 07:47:46;;;;;;;11.30;7.33;;;0.70;99.90;;;;;;5025749;28;20789;-79
2020/12/05 07:50:12;;;;;;;9.83;6.90;;;0.80;99.90;;;;;;5024808;28;20881;-78
2020/12/05 07:52:39;;;;;;;9.60;6.80;;;0.80;99.90;;;;;;5025774;28;20213;-78
2020/12/05 07:55:07;;;;;;;9.10;6.87;;;0.90;99.90;;;;;;5025127;28;20202;-79
2020/12/05 07:57:36;;;;;;;12.47;7.07;;;0.90;99.90;;;;;;5024799;28;20626;-78
2020/12/05 08:00:06;;;;;;;9.00;6.70;;;1.00;99.90;;;;;;5008418;28;20206;-79
2020/12/05 08:03:02;;;;;;;10.17;6.87;;;1.00;99.90;;;;;;5025285;28;20384;-78
2020/12/05 08:05:44;;;;;;;10.83;6.87;;;1.10;99.90;;;;;;5025031;28;20207;-79
2020/12/05 08:08:12;;;;;;;10.97;6.60;;;1.10;99.90;;;;;;5042451;28;20241;-79
2020/12/05 08:10:38;;;;;;;10.63;7.47;;;1.10;99.90;;;;;;5044516;28;20308;-79
2020/12/05 08:13:20;;;;;;;11.43;6.87;;;1.20;99.90;;;;;;5044536;28;20197;-79
2020/12/05 08:15:51;;;;;;;10.83;7.13;;;1.20;99.90;;;;;;5045357;28;20560;-78
2020/12/05 08:18:21;;;;;;;9.63;6.47;;;1.20;99.90;;;;;;5044251;28;20190;-80
2020/12/05 08:20:48;;;;;;;9.83;6.23;;;1.20;99.90;;;;;;5044666;28;20209;-78
2020/12/05 08:36:44;;;;;;;12.00;8.13;;;1.50;99.90;;;;;;4869209;28;20653;-77
2020/12/05 08:39:12;;;;;;;15.03;9.47;;;1.60;99.90;;;;;;4963506;28;20237;-78
2020/12/05 08:41:43;;;;;;;11.23;8.90;;;1.70;99.90;;;;;;5025463;28;20209;-78
2020/12/05 08:44:14;;;;;;;13.37;10.13;;;1.90;99.90;;;;;;5044781;28;20221;-77
2020/12/05 08:46:40;;;;;;;14.27;10.67;;;2.00;99.90;;;;;;5045264;28;20190;-78
2020/12/05 08:49:17;;;;;;;14.47;11.87;;;2.10;99.90;;;;;;5044460;28;20198;-77
2020/12/05 08:51:49;;;;;;;15.93;11.60;;;2.20;99.90;;;;;;5045005;28;20205;-78
2020/12/05 08:54:16;;;;;;;17.40;11.13;;;2.30;99.90;;;;;;5043414;28;20924;-78
2020/12/05 08:56:43;;;;;;;16.17;11.27;;;2.40;99.90;;;;;;5044921;28;20275;-78
2020/12/05 08:59:10;;;;;;;13.57;10.17;;;2.40;99.90;;;;;;5043989;28;20412;-79
2020/12/05 09:01:41;;;;;;;16.37;11.47;;;2.50;99.90;;;;;;5043379;28;20216;-79
2020/12/05 09:04:07;;;;;;;16.93;12.53;;;2.60;99.90;;;;;;5045175;28;20637;-81
2020/12/05 09:06:34;;;;;;;14.03;10.93;;;2.60;99.90;;;;;;5044888;28;20633;-80
2020/12/05 09:09:01;;;;;;;15.70;10.97;;;2.70;99.90;;;;;;5045662;28;20202;-79
2020/12/05 09:11:27;;;;;;;15.37;11.60;;;2.80;99.90;;;;;;5045055;28;20205;-80
2020/12/05 09:13:53;;;;;;;14.93;11.50;;;2.80;99.90;;;;;;5044797;28;20198;-81
2020/12/05 09:16:20;;;;;;;16.70;11.50;;;2.90;99.90;;;;;;5044389;28;20213;-80
2020/12/05 09:18:48;;;;;;;17.43;11.40;;;2.90;99.90;;;;;;5045766;28;20528;-79
2020/12/05 09:21:17;;;;;;;17.10;12.20;;;3.00;99.90;;;;;;5044714;28;20237;-81
2020/12/05 09:23:45;;;;;;;16.10;12.07;;;3.00;99.90;;;;;;5045709;28;20221;-80
2020/12/05 09:26:12;;;;;;;18.03;12.77;;;3.00;99.90;;;;;;5445098;22;20250;-82
2020/12/05 09:28:39;;;;;;;14.37;11.30;;;3.10;99.90;;;;;;5006507;28;20580;-81
2020/12/05 09:31:07;;;;;;;17.83;11.90;;;3.10;99.90;;;;;;5009567;28;20195;-83
2020/12/05 09:33:34;;;;;;;17.27;11.77;;;3.10;99.90;;;;;;5010279;28;20306;-82
2020/12/05 09:36:01;;;;;;;15.87;11.53;;;3.10;99.90;;;;;;5008260;28;20262;-82
2020/12/05 09:40:53;;;;;;;18.00;12.57;;;3.10;99.90;;;;;;5074367;22;20228;-83
2020/12/05 09:43:20;;;;;;;17.13;12.57;;;3.20;99.90;;;;;;5068899;28;20232;-83
2020/12/05 09:45:47;;;;;;;18.13;12.03;;;3.20;99.90;;;;;;5068273;28;20259;-84
2020/12/05 09:48:14;;;;;;;20.43;12.77;;;3.20;99.90;;;;;;5067089;28;20201;-84
2020/12/05 09:50:40;;;;;;;21.03;11.97;;;3.30;99.90;;;;;;5067387;28;20678;-80
2020/12/05 09:53:06;;;;;;;16.80;12.50;;;3.30;99.90;;;;;;5065229;28;20855;-83
2020/12/05 09:55:33;;;;;;;14.87;11.83;;;3.40;99.90;;;;;;5062592;28;20216;-80
2020/12/05 09:57:59;;;;;;;16.77;11.60;;;3.40;99.90;;;;;;5065778;28;20201;-79
2020/12/05 10:00:26;;;;;;;13.83;10.50;;;3.40;99.90;;;;;;5065975;28;20212;-82
2020/12/05 10:02:53;;;;;;;13.33;11.37;;;3.40;99.90;;;;;;5066651;28;20638;-81
2020/12/05 10:05:19;;;;;;;17.87;11.40;;;3.40;99.90;;;;;;5065702;28;20444;-81
2020/12/05 10:07:45;;;;;;;14.20;10.47;;;3.50;99.90;;;;;;5069360;28;20198;-82
2020/12/05 10:10:12;;;;;;;14.97;11.17;;;3.50;99.90;;;;;;5069602;28;20207;-80
2020/12/05 10:12:44;;;;;;;13.63;10.97;;;3.50;99.90;;;;;;5069177;28;20201;-79
2020/12/05 10:15:11;;;;;;;15.70;11.57;;;3.60;99.90;;;;;;5071039;28;20204;-82
2020/12/05 10:17:39;;;;;;;16.17;11.70;;;3.70;99.90;;;;;;5072458;28;20228;-85
2020/12/05 10:20:06;;;;;;;12.67;11.17;;;3.70;99.90;;;;;;5072143;28;20190;-83
2020/12/05 10:22:33;;;;;;;17.07;11.47;;;3.70;99.90;;;;;;5071524;28;20201;-82
2020/12/05 10:24:59;;;;;;;13.27;10.67;;;3.80;99.90;;;;;;5070200;28;20546;-81
2020/12/05 10:27:25;;;;;;;14.97;10.90;;;3.80;99.90;;;;;;5070442;28;20656;-86
2020/12/05 10:29:51;;;;;;;15.37;11.47;;;3.80;99.90;;;;;;5069761;28;20201;-80
2020/12/05 10:32:18;;;;;;;17.17;10.37;;;3.90;99.90;;;;;;5069618;28;20616;-79
2020/12/05 10:34:45;;;;;;;12.53;11.17;;;3.90;99.90;;;;;;5070284;28;20200;-81
2020/12/05 10:37:12;;;;;;;15.10;11.00;;;3.90;99.90;;;;;;5070250;28;20212;-82
2020/12/05 10:39:38;;;;;;;14.40;11.10;;;4.00;99.90;;;;;;5070289;28;20472;-83
2020/12/05 10:42:04;;;;;;;17.40;11.27;;;4.00;99.90;;;;;;5070911;28;20620;-84
2020/12/05 10:44:31;;;;;;;15.37;10.97;;;4.10;99.90;;;;;;5070731;28;20225;-81
2020/12/05 10:46:57;;;;;;;13.63;10.13;;;4.10;99.90;;;;;;5069691;28;20205;-84
2020/12/05 10:49:23;;;;;;;11.10;8.80;;;4.10;99.90;;;;;;5070813;28;20208;-84
2020/12/05 10:51:51;;;;;;;10.70;9.10;;;4.10;99.90;;;;;;5070820;28;20224;-85
2020/12/05 10:54:17;;;;;;;10.90;8.93;;;4.20;99.90;;;;;;5070225;28;20761;-82
2020/12/05 10:56:43;;;;;;;10.87;8.50;;;4.20;99.90;;;;;;5068054;28;20209;-82
2020/12/05 10:59:10;;;;;;;10.83;9.13;;;4.20;99.90;;;;;;5069865;28;20189;-84
2020/12/05 11:01:37;;;;;;;12.73;9.03;;;4.20;99.90;;;;;;5051698;28;20216;-82
2020/12/05 11:04:03;;;;;;;11.20;8.27;;;4.20;99.90;;;;;;5050730;28;20218;-85
2020/12/05 11:06:30;;;;;;;9.03;8.00;;;4.30;99.90;;;;;;5051876;28;20903;-83
2020/12/05 11:08:57;;;;;;;13.53;8.50;;;4.30;99.90;;;;;;5052478;28;20285;-86
2020/12/05 11:11:24;;;;;;;10.77;7.77;;;4.40;99.90;;;;;;5053415;28;20209;-89
2020/12/05 11:13:50;;;;;;;10.00;7.37;;;4.40;99.90;;;;;;5053389;28;20969;-89
2020/12/05 11:16:20;;;;;;;11.30;7.83;;;4.50;99.90;;;;;;5052505;28;20209;-89
2020/12/05 11:18:47;;;;;;;9.40;7.10;;;4.50;99.90;;;;;;5053496;28;20305;-85
2020/12/05 11:21:13;;;;;;;12.37;7.43;;;4.60;99.90;;;;;;5053160;28;20210;-88
2020/12/05 11:23:40;;;;;;;11.03;8.07;;;4.70;99.90;;;;;;5053139;28;20804;-88
2020/12/05 11:26:07;;;;;;;8.60;6.53;;;4.70;99.90;;;;;;5063864;28;20575;-90
2020/12/05 11:28:34;;;;;;;9.17;6.67;;;4.80;99.90;;;;;;5072415;28;20201;-90
2020/12/05 11:31:00;;;;;;;8.93;6.53;;;4.90;99.90;;;;;;5072871;28;20574;-92
2020/12/05 11:33:35;;;;;;;9.97;6.70;;;4.90;99.90;;;;;;5077522;28;20198;-96
2020/12/05 11:36:02;;;;;;;10.97;6.60;;;5.10;99.90;;;;;;5073251;28;20209;-92
2020/12/05 11:38:28;;;;;;;6.97;5.90;;;5.10;99.90;;;;;;5073395;28;20215;-94
2020/12/05 11:40:54;;;;;;;9.63;6.13;;;5.10;99.90;;;;;;5073789;28;20241;-90
2020/12/05 11:43:22;;;;;;;6.67;5.90;;;5.10;99.90;;;;;;5072221;28;20197;-83
2020/12/05 11:45:51;;;;;;;7.37;5.60;;;5.10;99.90;;;;;;5100145;22;20238;-92
2020/12/05 11:48:17;;;;;;;6.50;5.80;;;5.20;99.90;;;;;;5072499;28;20240;-91
2020/12/05 11:50:44;;;;;;;9.23;6.70;;;5.20;99.90;;;;;;5074659;28;20232;-90
2020/12/05 11:53:10;;;;;;;7.70;6.20;;;5.30;99.90;;;;;;5078855;28;20208;-94
2020/12/05 11:55:39;;;;;;;8.67;6.90;;;5.30;99.90;;;;;;5079050;22;20268;-81
2020/12/05 11:58:08;;;;;;;8.10;6.57;;;5.30;99.90;;;;;;5062468;28;20206;-94
2020/12/05 12:00:35;;;;;;;7.40;6.33;;;5.30;99.90;;;;;;5063587;28;20237;-95
2020/12/05 12:03:01;;;;;;;8.90;7.27;;;5.30;99.90;;;;;;5058449;28;20213;-88
2020/12/05 12:05:28;;;;;;;10.53;7.43;;;5.40;99.90;;;;;;5056102;28;20226;-83
2020/12/05 12:07:54;;;;;;;12.30;7.70;;;5.40;99.90;;;;;;5061329;28;20613;-96
2020/12/05 12:10:22;;;;;;;8.97;7.20;;;5.40;99.90;;;;;;5057084;28;20198;-96
2020/12/05 12:12:48;;;;;;;8.57;6.87;;;5.40;99.90;;;;;;5060264;28;20202;-83
2020/12/05 12:15:22;;;;;;;8.47;7.57;;;5.40;99.90;;;;;;5081041;23;20251;-94
2020/12/05 12:17:50;;;;;;;8.80;7.90;;;5.40;99.90;;;;;;5072871;28;20930;-85
2020/12/05 12:20:16;;;;;;;9.03;7.47;;;5.40;99.90;;;;;;5072096;28;20288;-88
2020/12/05 12:22:43;;;;;;;9.57;7.30;;;5.40;99.90;;;;;;5071483;28;20205;-87
2020/12/05 12:25:09;;;;;;;8.90;7.87;;;5.40;99.90;;;;;;5070822;28;20811;-87
2020/12/05 12:27:35;;;;;;;8.73;7.83;;;5.40;99.90;;;;;;5070394;28;20229;-87
2020/12/05 12:30:01;;;;;;;11.03;8.47;;;5.30;99.90;;;;;;5071773;28;20201;-88
2020/12/05 12:32:28;;;;;;;9.13;8.17;;;5.30;99.90;;;;;;5070753;28;20621;-88
2020/12/05 12:34:55;;;;;;;10.87;7.97;;;5.30;99.90;;;;;;5072154;28;20204;-88
2020/12/05 12:37:21;;;;;;;9.77;8.63;;;5.30;99.90;;;;;;5070979;28;20205;-86
2020/12/05 12:39:47;;;;;;;9.17;8.23;;;5.40;99.90;;;;;;5071562;28;20193;-88
2020/12/05 12:42:14;;;;;;;11.80;9.27;;;5.40;99.90;;;;;;5071588;28;20209;-88
2020/12/05 12:44:40;;;;;;;9.23;7.60;;;5.40;99.90;;;;;;5071577;28;20613;-87
2020/12/05 12:47:16;;;;;;;10.33;7.93;;;5.50;99.90;;;;;;5071003;28;20201;-89
2020/12/05 12:49:42;;;;;;;9.37;7.50;;;5.50;99.90;;;;;;5072236;28;20218;-88
2020/12/05 12:52:10;;;;;;;10.73;7.40;;;5.50;99.90;;;;;;5071423;28;20212;-88
2020/12/05 12:54:36;;;;;;;10.47;7.37;;;5.50;99.90;;;;;;5072233;28;20597;-87
2020/12/05 12:57:03;;;;;;;10.47;7.43;;;5.50;99.90;;;;;;5071888;28;20291;-87
2020/12/05 12:59:29;;;;;;;8.10;7.30;;;5.50;99.90;;;;;;5072211;28;20728;-87
2020/12/05 13:01:56;;;;;;;8.07;7.23;;;5.50;99.90;;;;;;5072120;28;20716;-87
2020/12/05 13:04:23;;;;;;;10.67;7.80;;;5.40;99.90;;;;;;5072544;28;20221;-87
2020/12/05 13:06:53;;;;;;;10.50;8.57;;;5.50;99.90;;;;;;5071600;28;20550;-87
2020/12/05 13:09:21;;;;;;;10.87;7.90;;;5.50;99.90;;;;;;5071759;28;20380;-89
2020/12/05 13:11:47;;;;;;;8.20;7.33;;;5.50;99.90;;;;;;5072018;28;20205;-88